createdAt,value
2023-04-09T00:01:55.706Z,32.92
2023-04-09T00:04:58.232Z,30.83
2023-04-09T00:08:01.405Z,27.20
2023-04-09T00:11:04.438Z,30.58
2023-04-09T00:14:07.322Z,26.67
2023-04-09T00:17:10.041Z,30.33
2023-04-09T00:20:13.004Z,27.50
2023-04-09T00:23:15.857Z,30.27
2023-04-09T00:26:18.995Z,29.38
2023-04-09T00:29:22.233Z,29.95
2023-04-09T00:32:25.174Z,29.55
2023-04-09T00:35:27.719Z,31.38
2023-04-09T00:38:31.109Z,30.37
2023-04-09T00:41:33.976Z,33.10
2023-04-09T00:44:36.777Z,31.10
2023-04-09T00:47:39.705Z,28.97
2023-04-09T00:50:43.446Z,27.20
2023-04-09T00:53:46.712Z,31.40
2023-04-09T00:56:49.369Z,29.48
2023-04-09T00:59:52.809Z,30.77
2023-04-09T01:03:01.173Z,31.20
2023-04-09T01:06:11.342Z,29.92
2023-04-09T01:09:41.832Z,30.53
2023-04-09T01:13:00.478Z,35.50
2023-04-09T01:16:04.179Z,33.22
2023-04-09T01:19:26.960Z,27.47
2023-04-09T01:23:06.761Z,31.98
2023-04-09T01:26:30.926Z,28.73
2023-04-09T01:29:39.461Z,24.60
2023-04-09T01:32:43.891Z,20.65
2023-04-09T01:35:49.191Z,24.80
2023-04-09T01:38:53.322Z,20.58
2023-04-09T01:41:58.100Z,26.63
2023-04-09T01:45:01.897Z,25.73
2023-04-09T01:48:05.784Z,27.83
2023-04-09T01:51:08.924Z,30.33
2023-04-09T01:54:11.736Z,26.55
2023-04-09T01:57:14.344Z,29.55
2023-04-09T02:00:17.408Z,28.60
2023-04-09T02:03:26.989Z,32.28
2023-04-09T02:06:48.706Z,26.88
2023-04-09T02:09:54.465Z,29.02
2023-04-09T02:13:00.182Z,28.97
2023-04-09T02:16:04.017Z,31.80
2023-04-09T02:19:06.930Z,32.60
2023-04-09T02:22:09.881Z,26.27
2023-04-09T02:25:13.162Z,30.52
2023-04-09T02:28:16.457Z,27.58
2023-04-09T02:31:19.553Z,29.05
2023-04-09T02:34:22.947Z,31.25
2023-04-09T02:37:25.988Z,30.85
2023-04-09T02:40:28.596Z,29.67
2023-04-09T02:43:31.578Z,32.13
2023-04-09T02:46:34.476Z,27.80
2023-04-09T02:49:37.178Z,30.77
2023-04-09T02:52:40.160Z,29.40
2023-04-09T02:55:42.821Z,30.75
2023-04-09T02:58:45.793Z,29.33
2023-04-09T03:01:48.957Z,31.10
2023-04-09T03:04:53.053Z,28.98
2023-04-09T03:07:57.236Z,27.15
2023-04-09T03:11:00.717Z,29.17
2023-04-09T03:14:03.588Z,32.80
2023-04-09T03:17:06.228Z,33.95
2023-04-09T03:20:09.457Z,31.55
2023-04-09T03:23:14.554Z,31.13
2023-04-09T03:26:21.857Z,32.42
2023-04-09T03:29:26.263Z,30.52
2023-04-09T03:32:29.443Z,28.33
2023-04-09T03:35:32.209Z,29.20
2023-04-09T03:38:36.825Z,29.00
2023-04-09T03:41:45.593Z,27.58
2023-04-09T03:44:54.047Z,27.30
2023-04-09T03:48:09.654Z,30.48
2023-04-09T03:51:14.370Z,28.17
2023-04-09T03:54:23.007Z,26.97
2023-04-09T03:57:27.806Z,29.73
2023-04-09T04:00:31.781Z,26.77
2023-04-09T04:03:54.871Z,25.35
2023-04-09T04:06:59.794Z,26.98
2023-04-09T04:10:09.970Z,26.42
2023-04-09T04:13:15.724Z,24.05
2023-04-09T04:16:26.200Z,26.27
2023-04-09T04:19:30.591Z,23.50
2023-04-09T04:22:34.914Z,25.20
2023-04-09T04:25:42.838Z,27.23
2023-04-09T04:28:49.145Z,24.23
2023-04-09T04:32:03.073Z,23.52
2023-04-09T04:35:11.990Z,26.70
2023-04-09T04:38:15.949Z,23.08
2023-04-09T04:41:18.914Z,24.13
2023-04-09T04:44:28.776Z,21.63
2023-04-09T04:47:51.320Z,20.27
2023-04-09T04:51:05.951Z,19.40
2023-04-09T04:54:16.072Z,19.77
2023-04-09T04:57:25.574Z,16.77
2023-04-09T05:00:29.469Z,20.60
2023-04-09T05:03:36.983Z,22.38
2023-04-09T05:06:52.925Z,22.58
2023-04-09T05:09:58.950Z,17.73
2023-04-09T05:13:04.801Z,18.50
2023-04-09T05:16:20.799Z,21.67
2023-04-09T05:19:29.561Z,23.47
2023-04-09T05:22:36.468Z,19.55
2023-04-09T05:25:40.040Z,21.73
2023-04-09T05:28:48.895Z,21.50
2023-04-09T05:31:55.082Z,23.33
2023-04-09T05:35:11.381Z,17.58
2023-04-09T05:38:18.980Z,20.85
2023-04-09T05:41:28.970Z,21.20
2023-04-09T05:44:53.728Z,18.77
2023-04-09T05:47:57.297Z,20.23
2023-04-09T05:51:01.104Z,24.60
2023-04-09T05:54:04.778Z,19.13
2023-04-09T05:57:11.946Z,22.90
2023-04-09T06:00:18.521Z,21.83
2023-04-09T06:03:23.110Z,23.75
2023-04-09T06:06:26.336Z,24.02
2023-04-09T06:09:29.605Z,23.02
2023-04-09T06:12:35.309Z,24.77
2023-04-09T06:15:39.629Z,22.92
2023-04-09T06:18:42.603Z,23.23
2023-04-09T06:21:45.564Z,21.13
2023-04-09T06:24:48.483Z,22.42
2023-04-09T06:27:51.258Z,24.75
2023-04-09T06:30:55.317Z,32.60
2023-04-09T06:33:58.201Z,35.88
2023-04-09T06:37:00.831Z,32.70
2023-04-09T06:40:03.761Z,29.50
2023-04-09T06:43:06.589Z,25.88
2023-04-09T06:46:20.616Z,27.65
2023-04-09T06:49:23.202Z,27.08
2023-04-09T06:52:26.213Z,27.30
2023-04-09T06:55:29.168Z,31.33
2023-04-09T06:58:31.983Z,25.10
2023-04-09T07:01:35.870Z,26.90
2023-04-09T07:04:38.905Z,19.35
2023-04-09T07:07:41.463Z,22.63
2023-04-09T07:10:47.561Z,24.60
2023-04-09T07:13:50.552Z,25.50
2023-04-09T07:16:53.407Z,26.15
2023-04-09T07:19:56.521Z,25.30
2023-04-09T07:22:59.809Z,27.83
2023-04-09T07:26:04.529Z,22.55
2023-04-09T07:29:08.158Z,24.45
2023-04-09T07:32:10.868Z,24.87
2023-04-09T07:35:13.772Z,25.77
2023-04-09T07:38:16.802Z,28.77
2023-04-09T07:41:19.788Z,19.80
2023-04-09T07:44:22.441Z,24.73
2023-04-09T07:47:25.460Z,25.17
2023-04-09T07:50:28.182Z,22.05
2023-04-09T07:53:31.142Z,26.37
2023-04-09T07:56:33.868Z,26.30
2023-04-09T07:59:36.799Z,23.67
2023-04-09T08:02:39.981Z,24.50
2023-04-09T08:05:43.284Z,25.15
2023-04-09T08:08:46.236Z,21.45
2023-04-09T08:11:49.737Z,17.38
2023-04-09T08:14:52.714Z,20.08
2023-04-09T08:17:55.746Z,19.60
2023-04-09T08:20:58.650Z,21.17
2023-04-09T08:24:04.624Z,18.17
2023-04-09T08:27:07.348Z,16.60
2023-04-09T08:30:10.743Z,19.48
2023-04-09T08:33:14.018Z,16.70
2023-04-09T08:36:16.984Z,17.33
2023-04-09T08:39:20.755Z,16.60
2023-04-09T08:42:26.423Z,15.23
2023-04-09T08:45:29.404Z,11.32
2023-04-09T08:48:32.582Z,14.63
2023-04-09T08:51:35.286Z,14.30
2023-04-09T08:54:38.472Z,13.00
2023-04-09T08:57:41.540Z,13.02
2023-04-09T09:00:44.951Z,12.65
2023-04-09T09:04:04.645Z,10.03
2023-04-09T09:07:07.597Z,10.13
2023-04-09T09:10:10.517Z,9.25
2023-04-09T09:13:24.420Z,9.70
2023-04-09T09:16:27.594Z,10.32
2023-04-09T09:19:33.694Z,9.27
2023-04-09T09:22:55.255Z,9.05
2023-04-09T09:25:58.477Z,12.80
2023-04-09T09:29:04.148Z,10.02
2023-04-09T09:32:13.913Z,8.70
2023-04-09T09:35:16.627Z,9.10
2023-04-09T09:38:19.350Z,8.32
2023-04-09T09:41:22.388Z,7.60
2023-04-09T09:44:33.228Z,9.13
2023-04-09T09:47:36.550Z,8.50
2023-04-09T09:50:42.205Z,7.43
2023-04-09T09:53:47.134Z,7.78
2023-04-09T09:56:53.170Z,10.20
2023-04-09T10:00:04.249Z,7.03
2023-04-09T10:03:20.393Z,8.90
2023-04-09T10:06:23.976Z,8.10
2023-04-09T10:09:28.378Z,11.25
2023-04-09T10:12:31.440Z,8.32
2023-04-09T10:15:34.140Z,7.93
2023-04-09T10:18:37.010Z,9.10
2023-04-09T10:21:54.959Z,7.32
2023-04-09T10:24:58.188Z,7.53
2023-04-09T10:28:02.465Z,7.83
2023-04-09T10:31:08.829Z,8.43
2023-04-09T10:34:11.569Z,8.93
2023-04-09T10:37:17.009Z,7.37
2023-04-09T10:40:22.627Z,9.43
2023-04-09T10:43:25.409Z,7.53
2023-04-09T10:46:34.957Z,8.40
2023-04-09T10:49:39.775Z,8.32
2023-04-09T10:52:42.765Z,9.90
2023-04-09T10:55:50.414Z,8.35
2023-04-09T10:58:54.233Z,8.03
2023-04-09T11:01:57.196Z,9.50
2023-04-09T11:05:18.376Z,9.85
2023-04-09T11:08:22.367Z,9.33
2023-04-09T11:11:28.575Z,8.90
2023-04-09T11:14:33.463Z,8.70
2023-04-09T11:17:37.138Z,8.65
2023-04-09T11:20:40.337Z,10.48
2023-04-09T11:23:51.469Z,8.10
2023-04-09T11:26:54.835Z,10.68
2023-04-09T11:29:57.572Z,10.17
2023-04-09T11:33:01.159Z,7.97
2023-04-09T11:36:06.884Z,9.25
2023-04-09T11:39:09.542Z,8.43
2023-04-09T11:42:15.729Z,10.30
2023-04-09T11:45:19.176Z,11.63
2023-04-09T11:48:24.007Z,11.77
2023-04-09T11:51:27.460Z,10.75
2023-04-09T11:54:36.750Z,9.77
2023-04-09T11:57:48.324Z,9.20
2023-04-09T12:01:01.026Z,10.97
2023-04-09T12:04:05.645Z,12.65
2023-04-09T12:07:09.457Z,12.90
2023-04-09T12:10:12.630Z,12.10
2023-04-09T12:13:16.949Z,9.55
2023-04-09T12:16:21.358Z,11.88
2023-04-09T12:19:26.041Z,10.30
2023-04-09T12:22:28.500Z,9.25
2023-04-09T12:25:32.884Z,10.52
2023-04-09T12:28:35.776Z,8.60
2023-04-09T12:31:38.780Z,11.93
2023-04-09T12:34:41.606Z,9.20
2023-04-09T12:37:44.999Z,8.82
2023-04-09T12:40:48.977Z,9.03
2023-04-09T12:43:52.106Z,10.75
2023-04-09T12:47:00.248Z,8.80
2023-04-09T12:50:04.778Z,10.50
2023-04-09T12:53:07.439Z,8.95
2023-04-09T12:56:10.741Z,10.73
2023-04-09T12:59:13.438Z,10.43
2023-04-09T13:02:16.728Z,9.83
2023-04-09T13:05:19.642Z,9.57
2023-04-09T13:08:22.768Z,9.05
2023-04-09T13:11:25.917Z,10.33
2023-04-09T13:14:28.848Z,9.20
2023-04-09T13:17:31.585Z,8.65
2023-04-09T13:20:35.079Z,8.98
2023-04-09T13:23:37.516Z,8.50
2023-04-09T13:26:42.277Z,12.18
2023-04-09T13:29:45.016Z,9.25
2023-04-09T13:32:48.010Z,9.23
2023-04-09T13:35:51.345Z,9.73
2023-04-09T13:38:54.545Z,9.80
2023-04-09T13:41:58.246Z,13.30
2023-04-09T13:45:01.362Z,10.27
2023-04-09T13:48:05.585Z,11.43
2023-04-09T13:51:08.949Z,12.45
2023-04-09T13:54:11.635Z,8.32
2023-04-09T13:57:14.544Z,10.70
2023-04-09T14:00:17.457Z,9.23
2023-04-09T14:03:20.687Z,9.97
2023-04-09T14:06:23.454Z,9.98
2023-04-09T14:09:26.185Z,9.57
2023-04-09T14:12:29.428Z,10.97
2023-04-09T14:15:32.796Z,10.50
2023-04-09T14:18:35.554Z,8.95
2023-04-09T14:21:39.286Z,10.75
2023-04-09T14:24:41.922Z,11.68
2023-04-09T14:27:45.109Z,11.82
2023-04-09T14:30:48.452Z,15.85
2023-04-09T14:33:51.208Z,9.50
2023-04-09T14:36:53.587Z,8.65
2023-04-09T14:39:56.554Z,9.80
2023-04-09T14:43:00.382Z,10.30
2023-04-09T14:46:04.310Z,9.38
2023-04-09T14:49:07.081Z,9.07
2023-04-09T14:52:10.103Z,16.00
2023-04-09T14:55:12.639Z,12.38
2023-04-09T14:58:15.518Z,10.52
2023-04-09T15:01:18.080Z,16.00
2023-04-09T15:04:21.271Z,13.60
2023-04-09T15:07:25.258Z,9.88
2023-04-09T15:10:28.577Z,9.18
2023-04-09T15:13:31.489Z,9.83
2023-04-09T15:16:37.748Z,10.15
2023-04-09T15:19:40.544Z,11.82
2023-04-09T15:22:43.748Z,12.60
2023-04-09T15:25:48.081Z,10.40
2023-04-09T15:28:51.509Z,11.68
2023-04-09T15:31:54.589Z,11.50
2023-04-09T15:34:57.604Z,11.97
2023-04-09T15:38:00.274Z,12.02
2023-04-09T15:41:03.284Z,11.93
2023-04-09T15:44:05.930Z,10.40
2023-04-09T15:47:08.570Z,16.30
2023-04-09T15:50:11.286Z,14.13
2023-04-09T15:53:17.715Z,13.55
2023-04-09T15:56:20.359Z,15.45
2023-04-09T15:59:23.326Z,15.05
2023-04-09T16:02:26.650Z,14.75
2023-04-09T16:05:29.827Z,13.07
2023-04-09T16:08:32.686Z,12.25
2023-04-09T16:11:36.706Z,11.15
2023-04-09T16:14:41.010Z,11.50
2023-04-09T16:17:43.731Z,13.00
2023-04-09T16:20:46.602Z,13.73
2023-04-09T16:23:50.010Z,17.17
2023-04-09T16:26:52.402Z,16.75
2023-04-09T16:29:55.554Z,16.90
2023-04-09T16:32:58.521Z,16.67
2023-04-09T16:36:01.638Z,16.07
2023-04-09T16:39:05.079Z,15.13
2023-04-09T16:42:07.933Z,15.82
2023-04-09T16:45:11.251Z,15.03
2023-04-09T16:48:14.278Z,13.52
2023-04-09T16:51:17.241Z,12.02
2023-04-09T16:54:20.770Z,12.82
2023-04-09T16:57:23.292Z,11.98
2023-04-09T17:00:27.638Z,15.27
2023-04-09T17:03:30.621Z,10.52
2023-04-09T17:06:33.501Z,13.20
2023-04-09T17:09:36.257Z,48.38
2023-04-09T17:12:39.208Z,41.58
2023-04-09T17:15:42.267Z,42.97
2023-04-09T17:18:45.764Z,27.17
2023-04-09T17:21:48.389Z,21.75
2023-04-09T17:24:52.898Z,18.92
2023-04-09T17:27:55.288Z,16.92
2023-04-09T17:30:58.145Z,19.42
2023-04-09T17:34:00.896Z,20.35
2023-04-09T17:37:03.810Z,21.97
2023-04-09T17:40:06.877Z,25.45
2023-04-09T17:43:10.125Z,26.33
2023-04-09T17:46:12.879Z,26.97
2023-04-09T17:49:15.612Z,23.88
2023-04-09T17:52:18.623Z,21.75
2023-04-09T17:55:23.773Z,20.15
2023-04-09T17:58:27.011Z,21.40
2023-04-09T18:01:29.947Z,20.55
2023-04-09T18:04:34.377Z,19.88
2023-04-09T18:07:38.998Z,22.67
2023-04-09T18:10:42.209Z,37.85
2023-04-09T18:13:45.086Z,52.03
2023-04-09T18:16:47.978Z,57.77
2023-04-09T18:19:53.691Z,58.92
2023-04-09T18:22:56.369Z,64.78
2023-04-09T18:25:59.041Z,63.25
2023-04-09T18:29:01.819Z,78.35
2023-04-09T18:32:05.503Z,61.15
2023-04-09T18:35:08.532Z,58.83
2023-04-09T18:38:11.348Z,60.17
2023-04-09T18:41:21.165Z,63.60
2023-04-09T18:44:23.717Z,69.82
2023-04-09T18:47:26.603Z,74.90
2023-04-09T18:50:29.249Z,75.50
2023-04-09T18:53:31.973Z,67.30
2023-04-09T18:56:34.920Z,59.17
2023-04-09T18:59:37.390Z,66.50
2023-04-09T19:02:40.696Z,76.20
2023-04-09T19:05:43.850Z,78.63
2023-04-09T19:08:48.108Z,81.20
2023-04-09T19:11:51.120Z,73.38
2023-04-09T19:14:57.056Z,71.95
2023-04-09T19:18:00.027Z,81.67
2023-04-09T19:21:02.829Z,84.07
2023-04-09T19:24:06.233Z,79.50
2023-04-09T19:27:10.312Z,97.20
2023-04-09T19:30:13.115Z,83.88
2023-04-09T19:33:16.410Z,87.53
2023-04-09T19:36:19.216Z,89.30
2023-04-09T19:39:22.327Z,91.73
2023-04-09T19:42:25.544Z,89.15
2023-04-09T19:45:28.474Z,94.35
2023-04-09T19:48:31.432Z,95.73
2023-04-09T19:51:34.571Z,93.45
2023-04-09T19:54:37.680Z,89.75
2023-04-09T19:57:41.121Z,76.05
2023-04-09T20:00:43.703Z,78.18
2023-04-09T20:03:47.240Z,83.20
2023-04-09T20:06:51.591Z,84.72
2023-04-09T20:09:55.030Z,85.77
2023-04-09T20:12:58.120Z,83.72
2023-04-09T20:16:01.335Z,76.20
2023-04-09T20:19:04.496Z,73.37
2023-04-09T20:22:07.346Z,64.13
2023-04-09T20:25:12.536Z,54.90
2023-04-09T20:28:15.504Z,52.55
2023-04-09T20:31:18.033Z,47.33
2023-04-09T20:34:26.786Z,57.05
2023-04-09T20:37:29.622Z,60.83
2023-04-09T20:40:35.467Z,70.77
2023-04-09T20:43:38.524Z,66.85
2023-04-09T20:46:41.326Z,59.33
2023-04-09T20:49:45.871Z,59.47
2023-04-09T20:52:49.978Z,55.13
2023-04-09T20:55:53.433Z,49.80
2023-04-09T20:58:57.854Z,46.97
2023-04-09T21:02:00.645Z,41.38
2023-04-09T21:05:15.685Z,50.10
2023-04-09T21:08:24.683Z,38.58
2023-04-09T21:11:27.749Z,35.57
2023-04-09T21:14:31.525Z,37.15
2023-04-09T21:17:34.301Z,38.50
2023-04-09T21:20:37.449Z,39.33
2023-04-09T21:23:41.786Z,45.20
2023-04-09T21:26:51.724Z,46.50
2023-04-09T21:29:55.538Z,44.80
2023-04-09T21:33:01.102Z,46.33
2023-04-09T21:36:04.956Z,50.60
2023-04-09T21:39:07.916Z,40.03
2023-04-09T21:42:15.119Z,36.43
2023-04-09T21:45:18.174Z,34.72
2023-04-09T21:48:21.694Z,31.55
2023-04-09T21:51:25.023Z,30.60
2023-04-09T21:54:28.191Z,27.95
2023-04-09T21:57:30.822Z,27.30
2023-04-09T22:00:33.798Z,28.17
2023-04-09T22:03:36.450Z,29.83
2023-04-09T22:06:40.544Z,35.38
2023-04-09T22:09:42.931Z,35.80
2023-04-09T22:12:46.510Z,41.77
2023-04-09T22:15:49.327Z,36.70
2023-04-09T22:18:52.948Z,32.60
2023-04-09T22:21:56.353Z,37.93
2023-04-09T22:24:59.001Z,33.08
2023-04-09T22:28:02.009Z,32.35
2023-04-09T22:31:05.462Z,34.00
2023-04-09T22:34:20.163Z,33.60
2023-04-09T22:37:24.619Z,32.38
2023-04-09T22:40:27.328Z,36.13
2023-04-09T22:43:30.404Z,32.30
2023-04-09T22:46:34.640Z,28.63
2023-04-09T22:49:37.819Z,32.83
2023-04-09T22:52:40.867Z,28.87
2023-04-09T22:55:43.589Z,25.83
2023-04-09T22:58:46.325Z,24.70
2023-04-09T23:01:50.111Z,24.58
2023-04-09T23:04:52.848Z,23.23
2023-04-09T23:07:56.097Z,25.17
2023-04-09T23:10:58.656Z,25.42
2023-04-09T23:14:01.744Z,23.60
2023-04-09T23:17:04.464Z,25.88
2023-04-09T23:20:08.960Z,25.45
2023-04-09T23:23:12.344Z,24.50
2023-04-09T23:26:15.024Z,24.95
2023-04-09T23:29:18.093Z,24.20
2023-04-09T23:32:22.001Z,25.20
2023-04-09T23:35:24.538Z,22.85
2023-04-09T23:38:27.798Z,24.02
2023-04-09T23:41:31.794Z,25.17
2023-04-09T23:44:36.522Z,24.97
2023-04-09T23:47:39.431Z,25.98
2023-04-09T23:50:42.532Z,25.98
2023-04-09T23:53:46.670Z,23.77
2023-04-09T23:56:49.467Z,24.75
2023-04-09T23:59:52.377Z,24.92
